Terminal Aerodrome Forecast
Issued by NWS

Home | Current Version | Previous Version | Graphics & Text | Print | Product List | Glossary On
Versions: 1 2 3 4 5 6 7 8 9 10 11 12 13 14 15 16 17 18
000
FTUS43 KICT 241423 AAA
TAFRSL
TAF AMD
KRSL 241423Z 2414/2512 17015G22KT P6SM VCTS SCT025 BKN050CB
      TEMPO 2414/2417 4SM -TSRA BKN025CB
     FM241700 18007KT P6SM VCTS BKN040CB
     FM242300 18007KT P6SM -SHRA VCTS BKN040CB
     FM250600 26005KT P6SM BKN150
     FM250800 32008KT P6SM SCT150=

USA.gov is the U.S. government's official web portal to all federal, state and local government web resources and services.